sensor_id;sensor_type;location;lat;lon;timestamp;pressure;altitude;pressure_sealevel;temperature;humidity
42247;BME280;27913;42.722;23.268;2023-02-28T00:00:30;95395.44;;;5.22;100.00
42247;BME280;27913;42.722;23.268;2023-02-28T00:02:55;95448.19;;;5.72;100.00
42247;BME280;27913;42.722;23.268;2023-02-28T00:05:22;95471.75;;;5.52;100.00
42247;BME280;27913;42.722;23.268;2023-02-28T00:07:49;95450.84;;;5.34;100.00
42247;BME280;27913;42.722;23.268;2023-02-28T00:10:20;95162.06;;;3.37;100.00
42247;BME280;27913;42.722;23.268;2023-02-28T00:12:53;95354.47;;;4.56;100.00
42247;BME280;27913;42.722;23.268;2023-02-28T00:15:22;95479.28;;;5.27;100.00
42247;BME280;27913;42.722;23.268;2023-02-28T00:17:49;95342.84;;;4.40;100.00
42247;BME280;27913;42.722;23.268;2023-02-28T00:20:15;95501.28;;;5.14;100.00
42247;BME280;27913;42.722;23.268;2023-02-28T00:22:46;95424.78;;;4.66;100.00
42247;BME280;27913;42.722;23.268;2023-02-28T00:25:15;95279.63;;;3.70;100.00
42247;BME280;27913;42.722;23.268;2023-02-28T00:27:41;95479.50;;;4.86;100.00
42247;BME280;27913;42.722;23.268;2023-02-28T00:30:09;95492.66;;;4.94;100.00
42247;BME280;27913;42.722;23.268;2023-02-28T00:32:35;95509.81;;;4.87;100.00
42247;BME280;27913;42.722;23.268;2023-02-28T00:35:01;95394.41;;;4.17;100.00
42247;BME280;27913;42.722;23.268;2023-02-28T00:37:27;95384.81;;;4.17;100.00
42247;BME280;27913;42.722;23.268;2023-02-28T00:39:52;95502.00;;;4.87;100.00
42247;BME280;27913;42.722;23.268;2023-02-28T00:42:18;95218.56;;;3.05;100.00
42247;BME280;27913;42.722;23.268;2023-02-28T00:44:44;95514.75;;;4.80;100.00
42247;BME280;27913;42.722;23.268;2023-02-28T00:47:09;95478.81;;;4.74;100.00
42247;BME280;27913;42.722;23.268;2023-02-28T00:49:35;95510.22;;;4.62;100.00
42247;BME280;27913;42.722;23.268;2023-02-28T00:52:00;95501.75;;;4.60;100.00
42247;BME280;27913;42.722;23.268;2023-02-28T00:54:26;95488.56;;;4.52;100.00
42247;BME280;27913;42.722;23.268;2023-02-28T00:56:52;95209.31;;;2.71;100.00
42247;BME280;27913;42.722;23.268;2023-02-28T00:59:17;95477.19;;;4.33;100.00
42247;BME280;27913;42.722;23.268;2023-02-28T01:04:19;95464.44;;;4.40;100.00
42247;BME280;27913;42.722;23.268;2023-02-28T01:06:44;95128.19;;;2.28;100.00
42247;BME280;27913;42.722;23.268;2023-02-28T01:09:12;95473.34;;;4.47;100.00
42247;BME280;27913;42.722;23.268;2023-02-28T01:11:38;95470.75;;;4.47;100.00
42247;BME280;27913;42.722;23.268;2023-02-28T01:14:04;95344.41;;;3.64;100.00
42247;BME280;27913;42.722;23.268;2023-02-28T01:16:30;95474.56;;;4.43;100.00
42247;BME280;27913;42.722;23.268;2023-02-28T01:18:55;95482.38;;;4.43;100.00
42247;BME280;27913;42.722;23.268;2023-02-28T01:21:21;95489.13;;;4.45;100.00
42247;BME280;27913;42.722;23.268;2023-02-28T01:23:48;95387.28;;;3.79;100.00
42247;BME280;27913;42.722;23.268;2023-02-28T01:26:19;95417.41;;;4.02;100.00
42247;BME280;27913;42.722;23.268;2023-02-28T01:28:45;95446.34;;;4.28;100.00
42247;BME280;27913;42.722;23.268;2023-02-28T01:31:11;95476.22;;;4.54;100.00
42247;BME280;27913;42.722;23.268;2023-02-28T01:33:37;95471.41;;;4.59;100.00
42247;BME280;27913;42.722;23.268;2023-02-28T01:36:12;95416.34;;;4.14;100.00
42247;BME280;27913;42.722;23.268;2023-02-28T01:38:39;95188.81;;;2.68;100.00
42247;BME280;27913;42.722;23.268;2023-02-28T01:41:06;95487.06;;;4.49;100.00
42247;BME280;27913;42.722;23.268;2023-02-28T01:46:11;95485.13;;;4.41;100.00
42247;BME280;27913;42.722;23.268;2023-02-28T01:48:45;95476.50;;;4.41;100.00
42247;BME280;27913;42.722;23.268;2023-02-28T01:51:38;95210.72;;;2.75;100.00
42247;BME280;27913;42.722;23.268;2023-02-28T01:54:07;95474.47;;;4.44;100.00
42247;BME280;27913;42.722;23.268;2023-02-28T01:56:46;95270.97;;;3.10;100.00
42247;BME280;27913;42.722;23.268;2023-02-28T01:59:17;95475.97;;;4.37;100.00
42247;BME280;27913;42.722;23.268;2023-02-28T02:01:45;95402.09;;;3.98;100.00
42247;BME280;27913;42.722;23.268;2023-02-28T02:04:10;95482.94;;;4.46;100.00
42247;BME280;27913;42.722;23.268;2023-02-28T02:06:43;95480.88;;;4.50;100.00
42247;BME280;27913;42.722;23.268;2023-02-28T02:09:11;95491.44;;;4.49;100.00
42247;BME280;27913;42.722;23.268;2023-02-28T02:11:39;95369.72;;;3.81;100.00
42247;BME280;27913;42.722;23.268;2023-02-28T02:14:29;95471.41;;;4.59;100.00
42247;BME280;27913;42.722;23.268;2023-02-28T02:30:40;95464.97;;;4.63;100.00
42247;BME280;27913;42.722;23.268;2023-02-28T02:33:32;95468.44;;;4.64;100.00
42247;BME280;27913;42.722;23.268;2023-02-28T02:36:18;95469.78;;;4.58;100.00
42247;BME280;27913;42.722;23.268;2023-02-28T02:38:55;95357.81;;;3.89;100.00
42247;BME280;27913;42.722;23.268;2023-02-28T02:41:33;95405.78;;;4.16;100.00
42247;BME280;27913;42.722;23.268;2023-02-28T02:44:10;95490.34;;;4.61;100.00
42247;BME280;27913;42.722;23.268;2023-02-28T02:46:41;95485.13;;;4.61;100.00
42247;BME280;27913;42.722;23.268;2023-02-28T02:49:15;95484.06;;;4.64;100.00
42247;BME280;27913;42.722;23.268;2023-02-28T02:51:44;95421.28;;;4.07;100.00
42247;BME280;27913;42.722;23.268;2023-02-28T02:54:12;95402.06;;;4.08;100.00
42247;BME280;27913;42.722;23.268;2023-02-28T02:56:43;95423.72;;;4.19;100.00
42247;BME280;27913;42.722;23.268;2023-02-28T02:59:13;95394.09;;;3.90;100.00
42247;BME280;27913;42.722;23.268;2023-02-28T03:01:48;95215.41;;;2.92;100.00
42247;BME280;27913;42.722;23.268;2023-02-28T03:04:20;95322.88;;;3.52;100.00
42247;BME280;27913;42.722;23.268;2023-02-28T03:06:46;95385.38;;;3.91;100.00
42247;BME280;27913;42.722;23.268;2023-02-28T03:09:12;95180.34;;;2.66;100.00
42247;BME280;27913;42.722;23.268;2023-02-28T03:11:39;95277.41;;;3.16;100.00
42247;BME280;27913;42.722;23.268;2023-02-28T03:25:13;95439.34;;;4.49;100.00
42247;BME280;27913;42.722;23.268;2023-02-28T03:28:15;95537.78;;;5.04;100.00
42247;BME280;27913;42.722;23.268;2023-02-28T03:31:07;95519.66;;;5.13;100.00
42247;BME280;27913;42.722;23.268;2023-02-28T03:36:45;95405.66;;;4.37;100.00
42247;BME280;27913;42.722;23.268;2023-02-28T03:39:43;95526.91;;;5.19;100.00
42247;BME280;27913;42.722;23.268;2023-02-28T03:42:20;95524.59;;;5.16;100.00
42247;BME280;27913;42.722;23.268;2023-02-28T03:44:56;95206.81;;;3.21;100.00
42247;BME280;27913;42.722;23.268;2023-02-28T03:47:27;95437.41;;;4.61;100.00
42247;BME280;27913;42.722;23.268;2023-02-28T03:49:59;95430.56;;;4.40;100.00
42247;BME280;27913;42.722;23.268;2023-02-28T03:52:32;95550.69;;;5.06;100.00
42247;BME280;27913;42.722;23.268;2023-02-28T03:55:02;95347.13;;;3.82;100.00
42247;BME280;27913;42.722;23.268;2023-02-28T03:57:34;95545.59;;;5.04;100.00
42247;BME280;27913;42.722;23.268;2023-02-28T04:00:07;95542.31;;;5.12;100.00
42247;BME280;27913;42.722;23.268;2023-02-28T04:02:35;95568.22;;;5.14;100.00
42247;BME280;27913;42.722;23.268;2023-02-28T04:05:01;95550.66;;;5.16;100.00
42247;BME280;27913;42.722;23.268;2023-02-28T04:07:30;95548.47;;;5.21;100.00
42247;BME280;27913;42.722;23.268;2023-02-28T04:12:31;95335.34;;;3.97;100.00
42247;BME280;27913;42.722;23.268;2023-02-28T04:14:56;95391.78;;;4.37;100.00
42247;BME280;27913;42.722;23.268;2023-02-28T04:17:22;95350.31;;;4.05;100.00
42247;BME280;27913;42.722;23.268;2023-02-28T04:19:47;95234.28;;;3.23;100.00
42247;BME280;27913;42.722;23.268;2023-02-28T04:22:13;95521.72;;;5.09;100.00
42247;BME280;27913;42.722;23.268;2023-02-28T04:24:38;95547.81;;;5.09;100.00
42247;BME280;27913;42.722;23.268;2023-02-28T04:27:06;95532.03;;;5.01;100.00
42247;BME280;27913;42.722;23.268;2023-02-28T04:29:32;95473.34;;;4.47;100.00
42247;BME280;27913;42.722;23.268;2023-02-28T04:31:58;95214.81;;;2.78;100.00
42247;BME280;27913;42.722;23.268;2023-02-28T04:34:28;95468.97;;;4.28;100.00
42247;BME280;27913;42.722;23.268;2023-02-28T04:36:54;95535.31;;;4.73;100.00
42247;BME280;27913;42.722;23.268;2023-02-28T04:39:21;95517.09;;;4.63;100.00
42247;BME280;27913;42.722;23.268;2023-02-28T04:41:47;95544.66;;;4.76;100.00
42247;BME280;27913;42.722;23.268;2023-02-28T04:44:13;95501.44;;;4.43;100.00
42247;BME280;27913;42.722;23.268;2023-02-28T04:46:39;95420.31;;;3.98;100.00
42247;BME280;27913;42.722;23.268;2023-02-28T04:49:05;95553.44;;;4.65;100.00
42247;BME280;27913;42.722;23.268;2023-02-28T04:51:30;95564.25;;;4.70;100.00
42247;BME280;27913;42.722;23.268;2023-02-28T04:53:56;95562.63;;;4.79;100.00
42247;BME280;27913;42.722;23.268;2023-02-28T04:56:22;95566.34;;;4.86;100.00
42247;BME280;27913;42.722;23.268;2023-02-28T04:58:48;95572.66;;;4.93;100.00
42247;BME280;27913;42.722;23.268;2023-02-28T05:01:18;95444.13;;;4.23;100.00
42247;BME280;27913;42.722;23.268;2023-02-28T05:03:44;95508.88;;;4.58;100.00
42247;BME280;27913;42.722;23.268;2023-02-28T05:06:11;95562.06;;;5.05;100.00
42247;BME280;27913;42.722;23.268;2023-02-28T05:08:37;95360.69;;;3.76;100.00
42247;BME280;27913;42.722;23.268;2023-02-28T05:11:03;95566.47;;;5.14;100.00
42247;BME280;27913;42.722;23.268;2023-02-28T05:13:29;95205.81;;;2.92;100.00
42247;BME280;27913;42.722;23.268;2023-02-28T05:15:55;95561.94;;;5.16;100.00
42247;BME280;27913;42.722;23.268;2023-02-28T05:18:21;95555.47;;;5.11;100.00
42247;BME280;27913;42.722;23.268;2023-02-28T05:20:46;95566.06;;;5.09;100.00
42247;BME280;27913;42.722;23.268;2023-02-28T05:23:13;95560.97;;;4.98;100.00
42247;BME280;27913;42.722;23.268;2023-02-28T05:25:40;95594.31;;;5.14;100.00
42247;BME280;27913;42.722;23.268;2023-02-28T05:28:06;95552.34;;;4.87;100.00
42247;BME280;27913;42.722;23.268;2023-02-28T05:30:31;95587.19;;;5.06;100.00
42247;BME280;27913;42.722;23.268;2023-02-28T05:32:58;95590.19;;;5.01;100.00
42247;BME280;27913;42.722;23.268;2023-02-28T05:35:26;95373.53;;;3.57;100.00
42247;BME280;27913;42.722;23.268;2023-02-28T05:37:51;95324.06;;;3.28;100.00
42247;BME280;27913;42.722;23.268;2023-02-28T05:40:17;95550.28;;;4.61;100.00
42247;BME280;27913;42.722;23.268;2023-02-28T05:42:42;95576.22;;;4.73;100.00
42247;BME280;27913;42.722;23.268;2023-02-28T05:45:08;95589.66;;;4.78;100.00
42247;BME280;27913;42.722;23.268;2023-02-28T05:47:36;95607.91;;;4.88;100.00
42247;BME280;27913;42.722;23.268;2023-02-28T05:50:03;95531.34;;;4.49;100.00
42247;BME280;27913;42.722;23.268;2023-02-28T05:52:29;95569.63;;;4.68;100.00
42247;BME280;27913;42.722;23.268;2023-02-28T05:54:58;95602.41;;;4.91;100.00
42247;BME280;27913;42.722;23.268;2023-02-28T05:57:23;95592.38;;;4.96;100.00
42247;BME280;27913;42.722;23.268;2023-02-28T05:59:49;95400.81;;;3.73;100.00
42247;BME280;27913;42.722;23.268;2023-02-28T06:02:16;95600.34;;;5.04;100.00
42247;BME280;27913;42.722;23.268;2023-02-28T06:04:43;95622.44;;;5.10;100.00
42247;BME280;27913;42.722;23.268;2023-02-28T06:07:08;95597.59;;;5.16;100.00
42247;BME280;27913;42.722;23.268;2023-02-28T06:09:35;95548.38;;;4.83;100.00
42247;BME280;27913;42.722;23.268;2023-02-28T06:12:02;95616.41;;;5.19;100.00
42247;BME280;27913;42.722;23.268;2023-02-28T06:14:31;95604.06;;;5.12;100.00
42247;BME280;27913;42.722;23.268;2023-02-28T06:16:58;95603.34;;;5.10;100.00
42247;BME280;27913;42.722;23.268;2023-02-28T06:19:23;95541.63;;;4.61;100.00
42247;BME280;27913;42.722;23.268;2023-02-28T06:21:51;95608.72;;;5.08;100.00
42247;BME280;27913;42.722;23.268;2023-02-28T06:24:19;95275.44;;;2.98;100.00
42247;BME280;27913;42.722;23.268;2023-02-28T06:26:44;95605.31;;;5.07;100.00
42247;BME280;27913;42.722;23.268;2023-02-28T06:29:10;95610.25;;;5.01;100.00
42247;BME280;27913;42.722;23.268;2023-02-28T06:31:35;95507.50;;;4.34;100.00
42247;BME280;27913;42.722;23.268;2023-02-28T06:34:01;95631.22;;;4.99;100.00
42247;BME280;27913;42.722;23.268;2023-02-28T06:36:27;95618.06;;;5.01;100.00
42247;BME280;27913;42.722;23.268;2023-02-28T06:38:52;95586.09;;;4.69;100.00
42247;BME280;27913;42.722;23.268;2023-02-28T06:41:25;95438.06;;;3.83;100.00
42247;BME280;27913;42.722;23.268;2023-02-28T06:43:51;95281.03;;;2.94;100.00
42247;BME280;27913;42.722;23.268;2023-02-28T06:46:17;95605.28;;;4.98;100.00
42247;BME280;27913;42.722;23.268;2023-02-28T06:48:43;95621.34;;;5.13;100.00
42247;BME280;27913;42.722;23.268;2023-02-28T06:51:18;95475.53;;;4.12;100.00
42247;BME280;27913;42.722;23.268;2023-02-28T06:53:45;95623.41;;;5.19;100.00
42247;BME280;27913;42.722;23.268;2023-02-28T06:56:14;95623.53;;;5.17;100.00
42247;BME280;27913;42.722;23.268;2023-02-28T06:58:40;95441.41;;;4.05;100.00
42247;BME280;27913;42.722;23.268;2023-02-28T07:01:07;95565.66;;;4.74;100.00
42247;BME280;27913;42.722;23.268;2023-02-28T07:03:32;95398.19;;;3.73;100.00
42247;BME280;27913;42.722;23.268;2023-02-28T07:05:58;95595.00;;;4.96;100.00
42247;BME280;27913;42.722;23.268;2023-02-28T07:08:24;95470.06;;;4.25;100.00
42247;BME280;27913;42.722;23.268;2023-02-28T07:10:54;95608.03;;;5.16;100.00
42247;BME280;27913;42.722;23.268;2023-02-28T07:13:20;95573.06;;;4.99;100.00
42247;BME280;27913;42.722;23.268;2023-02-28T07:15:57;95615.44;;;5.20;100.00
42247;BME280;27913;42.722;23.268;2023-02-28T07:18:24;95634.38;;;5.32;100.00
42247;BME280;27913;42.722;23.268;2023-02-28T07:20:49;95383.56;;;3.72;100.00
42247;BME280;27913;42.722;23.268;2023-02-28T07:23:15;95570.69;;;4.95;100.00
42247;BME280;27913;42.722;23.268;2023-02-28T07:25:43;95571.25;;;4.99;100.00
42247;BME280;27913;42.722;23.268;2023-02-28T07:28:11;95607.22;;;5.15;100.00
42247;BME280;27913;42.722;23.268;2023-02-28T07:30:37;95502.97;;;4.56;100.00
42247;BME280;27913;42.722;23.268;2023-02-28T07:33:03;95632.16;;;5.38;100.00
42247;BME280;27913;42.722;23.268;2023-02-28T07:35:29;95527.66;;;4.71;100.00
42247;BME280;27913;42.722;23.268;2023-02-28T07:37:55;95642.50;;;5.39;100.00
42247;BME280;27913;42.722;23.268;2023-02-28T07:40:22;95628.22;;;5.34;100.00
42247;BME280;27913;42.722;23.268;2023-02-28T07:42:47;95528.59;;;4.61;100.00
42247;BME280;27913;42.722;23.268;2023-02-28T07:45:13;95354.50;;;3.47;100.00
42247;BME280;27913;42.722;23.268;2023-02-28T07:47:39;95630.13;;;5.31;100.00
42247;BME280;27913;42.722;23.268;2023-02-28T07:50:07;95641.66;;;5.39;100.00
42247;BME280;27913;42.722;23.268;2023-02-28T07:52:33;95650.59;;;5.46;100.00
42247;BME280;27913;42.722;23.268;2023-02-28T07:54:58;95310.56;;;3.54;100.00
42247;BME280;27913;42.722;23.268;2023-02-28T07:57:24;95629.81;;;5.54;100.00
42247;BME280;27913;42.722;23.268;2023-02-28T07:59:50;95641.91;;;5.55;100.00
42247;BME280;27913;42.722;23.268;2023-02-28T08:02:17;95304.13;;;3.58;100.00
42247;BME280;27913;42.722;23.268;2023-02-28T08:04:43;95522.69;;;4.98;100.00
42247;BME280;27913;42.722;23.268;2023-02-28T08:07:09;95622.09;;;5.73;100.00
42247;BME280;27913;42.722;23.268;2023-02-28T08:09:38;95366.84;;;4.24;100.00
42247;BME280;27913;42.722;23.268;2023-02-28T08:12:04;95622.47;;;5.88;100.00
42247;BME280;27913;42.722;23.268;2023-02-28T08:14:30;95625.75;;;5.90;100.00
42247;BME280;27913;42.722;23.268;2023-02-28T08:16:55;95639.34;;;5.94;100.00
42247;BME280;27913;42.722;23.268;2023-02-28T08:19:21;95492.06;;;5.10;100.00
42247;BME280;27913;42.722;23.268;2023-02-28T08:21:46;95635.22;;;6.01;100.00
42247;BME280;27913;42.722;23.268;2023-02-28T08:24:11;95535.53;;;5.29;100.00
42247;BME280;27913;42.722;23.268;2023-02-28T08:26:37;95606.56;;;5.81;100.00
42247;BME280;27913;42.722;23.268;2023-02-28T08:29:02;95631.69;;;5.92;100.00
42247;BME280;27913;42.722;23.268;2023-02-28T08:31:28;95602.94;;;5.44;100.00
42247;BME280;27913;42.722;23.268;2023-02-28T08:33:53;95375.91;;;4.10;100.00
42247;BME280;27913;42.722;23.268;2023-02-28T08:36:22;95585.75;;;5.41;100.00
42247;BME280;27913;42.722;23.268;2023-02-28T08:38:48;95308.78;;;3.64;100.00
42247;BME280;27913;42.722;23.268;2023-02-28T08:41:14;95634.19;;;5.74;100.00
42247;BME280;27913;42.722;23.268;2023-02-28T08:43:40;95541.31;;;5.13;100.00
42247;BME280;27913;42.722;23.268;2023-02-28T08:46:07;95447.84;;;4.61;100.00
42247;BME280;27913;42.722;23.268;2023-02-28T08:48:34;95612.31;;;5.75;100.00
42247;BME280;27913;42.722;23.268;2023-02-28T08:51:02;95530.75;;;5.25;100.00
42247;BME280;27913;42.722;23.268;2023-02-28T08:53:29;95640.28;;;6.02;100.00
42247;BME280;27913;42.722;23.268;2023-02-28T08:55:59;95360.56;;;4.27;100.00
42247;BME280;27913;42.722;23.268;2023-02-28T08:58:26;95503.72;;;5.16;100.00
42247;BME280;27913;42.722;23.268;2023-02-28T09:00:52;95452.06;;;4.91;100.00
42247;BME280;27913;42.722;23.268;2023-02-28T09:03:18;95546.06;;;5.48;100.00
42247;BME280;27913;42.722;23.268;2023-02-28T09:05:54;95525.16;;;5.58;100.00
42247;BME280;27913;42.722;23.268;2023-02-28T09:08:21;95377.78;;;4.67;100.00
42247;BME280;27913;42.722;23.268;2023-02-28T09:10:46;95587.66;;;6.07;100.00
42247;BME280;27913;42.722;23.268;2023-02-28T09:13:12;95641.78;;;6.43;100.00
42247;BME280;27913;42.722;23.268;2023-02-28T09:15:38;95394.28;;;4.96;100.00
42247;BME280;27913;42.722;23.268;2023-02-28T09:18:04;95452.63;;;5.33;100.00
42247;BME280;27913;42.722;23.268;2023-02-28T09:20:29;95550.41;;;6.05;100.00
42247;BME280;27913;42.722;23.268;2023-02-28T09:22:54;95643.69;;;6.51;100.00
42247;BME280;27913;42.722;23.268;2023-02-28T09:25:20;95550.16;;;5.98;100.00
42247;BME280;27913;42.722;23.268;2023-02-28T09:27:45;95588.97;;;6.21;100.00
42247;BME280;27913;42.722;23.268;2023-02-28T09:30:12;95436.25;;;5.41;100.00
42247;BME280;27913;42.722;23.268;2023-02-28T09:32:38;95637.44;;;6.62;100.00
42247;BME280;27913;42.722;23.268;2023-02-28T09:35:04;95573.88;;;6.15;100.00
42247;BME280;27913;42.722;23.268;2023-02-28T09:37:29;95519.78;;;5.97;100.00
42247;BME280;27913;42.722;23.268;2023-02-28T09:39:56;95422.78;;;5.46;100.00
42247;BME280;27913;42.722;23.268;2023-02-28T09:42:27;95585.38;;;6.50;100.00
42247;BME280;27913;42.722;23.268;2023-02-28T09:44:55;95426.84;;;5.58;100.00
42247;BME280;27913;42.722;23.268;2023-02-28T09:47:34;95634.03;;;6.80;100.00
42247;BME280;27913;42.722;23.268;2023-02-28T09:50:19;95517.28;;;6.34;100.00
42247;BME280;27913;42.722;23.268;2023-02-28T09:52:48;95423.16;;;5.79;100.00
42247;BME280;27913;42.722;23.268;2023-02-28T09:57:41;95612.66;;;7.21;100.00
42247;BME280;27913;42.722;23.268;2023-02-28T10:00:23;95536.03;;;6.84;100.00
42247;BME280;27913;42.722;23.268;2023-02-28T10:03:20;95612.59;;;7.31;100.00
42247;BME280;27913;42.722;23.268;2023-02-28T10:06:11;95495.25;;;6.73;100.00
42247;BME280;27913;42.722;23.268;2023-02-28T10:09:07;95415.81;;;6.29;100.00
42247;BME280;27913;42.722;23.268;2023-02-28T10:11:37;95493.22;;;6.85;100.00
42247;BME280;27913;42.722;23.268;2023-02-28T10:14:06;95585.84;;;7.64;100.00
42247;BME280;27913;42.722;23.268;2023-02-28T10:16:57;95501.00;;;7.21;100.00
42247;BME280;27913;42.722;23.268;2023-02-28T10:22:02;95583.56;;;7.95;100.00
42247;BME280;27913;42.722;23.268;2023-02-28T10:24:35;95581.63;;;8.06;100.00
42247;BME280;27913;42.722;23.268;2023-02-28T10:27:13;95466.19;;;7.56;100.00
42247;BME280;27913;42.722;23.268;2023-02-28T10:29:42;95514.81;;;8.02;100.00
42247;BME280;27913;42.722;23.268;2023-02-28T10:32:09;95518.13;;;8.12;100.00
42247;BME280;27913;42.722;23.268;2023-02-28T10:34:35;95504.25;;;8.20;100.00
42247;BME280;27913;42.722;23.268;2023-02-28T10:37:01;95443.75;;;7.88;100.00
42247;BME280;27913;42.722;23.268;2023-02-28T10:39:36;95544.84;;;8.67;100.00
42247;BME280;27913;42.722;23.268;2023-02-28T10:42:19;95445.09;;;8.09;100.00
42247;BME280;27913;42.722;23.268;2023-02-28T10:44:45;95487.59;;;8.46;100.00
42247;BME280;27913;42.722;23.268;2023-02-28T10:47:17;95527.81;;;8.97;100.00
42247;BME280;27913;42.722;23.268;2023-02-28T10:49:49;95287.38;;;7.47;100.00
42247;BME280;27913;42.722;23.268;2023-02-28T10:52:33;95438.63;;;8.63;100.00
42247;BME280;27913;42.722;23.268;2023-02-28T10:55:23;95515.00;;;9.27;100.00
42247;BME280;27913;42.722;23.268;2023-02-28T10:57:50;95214.09;;;7.39;100.00
42247;BME280;27913;42.722;23.268;2023-02-28T11:00:23;95473.50;;;9.14;100.00
42247;BME280;27913;42.722;23.268;2023-02-28T11:02:51;95264.19;;;7.94;100.00
42247;BME280;27913;42.722;23.268;2023-02-28T11:07:57;95521.88;;;9.45;100.00
42247;BME280;27913;42.722;23.268;2023-02-28T11:10:28;95365.38;;;8.70;100.00
42247;BME280;27913;42.722;23.268;2023-02-28T11:12:56;95308.38;;;8.30;100.00
42247;BME280;27913;42.722;23.268;2023-02-28T11:15:25;95369.97;;;8.76;100.00
42247;BME280;27913;42.722;23.268;2023-02-28T11:17:55;95487.19;;;9.58;99.49
42247;BME280;27913;42.722;23.268;2023-02-28T11:20:24;95423.34;;;9.17;98.29
42247;BME280;27913;42.722;23.268;2023-02-28T11:22:52;95338.34;;;8.53;97.46
42247;BME280;27913;42.722;23.268;2023-02-28T11:25:26;95334.75;;;8.62;96.38
42247;BME280;27913;42.722;23.268;2023-02-28T11:28:02;95483.59;;;9.59;97.03
42247;BME280;27913;42.722;23.268;2023-02-28T11:30:36;95241.28;;;8.04;96.13
42247;BME280;27913;42.722;23.268;2023-02-28T11:33:31;95479.19;;;9.59;96.40
42247;BME280;27913;42.722;23.268;2023-02-28T11:36:01;95287.38;;;8.47;97.06
42247;BME280;27913;42.722;23.268;2023-02-28T11:38:27;95478.16;;;9.69;96.83
42247;BME280;27913;42.722;23.268;2023-02-28T11:41:02;95406.22;;;9.29;95.47
42247;BME280;27913;42.722;23.268;2023-02-28T11:46:32;95470.09;;;9.78;94.65
42247;BME280;27913;42.722;23.268;2023-02-28T11:49:14;95477.44;;;9.83;93.77
42247;BME280;27913;42.722;23.268;2023-02-28T11:52:04;95458.97;;;9.68;93.16
42247;BME280;27913;42.722;23.268;2023-02-28T11:54:59;95480.41;;;9.80;93.53
42247;BME280;27913;42.722;23.268;2023-02-28T12:11:04;95471.13;;;11.03;88.29
42247;BME280;27913;42.722;23.268;2023-02-28T12:17:07;95474.00;;;10.93;87.12
42247;BME280;27913;42.722;23.268;2023-02-28T12:22:29;95365.19;;;10.00;87.10
42247;BME280;27913;42.722;23.268;2023-02-28T12:25:19;95456.28;;;10.48;87.00
42247;BME280;27913;42.722;23.268;2023-02-28T12:27:48;95355.31;;;9.79;87.77
42247;BME280;27913;42.722;23.268;2023-02-28T12:30:22;95458.53;;;10.51;87.70
42247;BME280;27913;42.722;23.268;2023-02-28T12:33:01;95469.25;;;10.50;87.63
42247;BME280;27913;42.722;23.268;2023-02-28T12:35:41;95454.28;;;10.50;87.09
42247;BME280;27913;42.722;23.268;2023-02-28T12:38:31;95458.84;;;10.57;88.01
42247;BME280;27913;42.722;23.268;2023-02-28T12:41:05;95455.72;;;10.53;87.85
42247;BME280;27913;42.722;23.268;2023-02-28T12:43:42;95450.34;;;10.46;87.51
42247;BME280;27913;42.722;23.268;2023-02-28T12:46:19;95319.50;;;9.54;87.48
42247;BME280;27913;42.722;23.268;2023-02-28T12:48:49;95453.88;;;10.30;87.46
42247;BME280;27913;42.722;23.268;2023-02-28T12:51:17;95272.66;;;9.11;88.08
42247;BME280;27913;42.722;23.268;2023-02-28T12:58:52;95444.72;;;10.26;87.89
42247;BME280;27913;42.722;23.268;2023-02-28T13:01:45;95268.84;;;9.14;87.71
42247;BME280;27913;42.722;23.268;2023-02-28T13:04:52;95438.53;;;10.19;87.95
42247;BME280;27913;42.722;23.268;2023-02-28T13:10:08;95137.63;;;8.18;89.04
42247;BME280;27913;42.722;23.268;2023-02-28T13:12:34;95433.91;;;10.21;88.99
42247;BME280;27913;42.722;23.268;2023-02-28T13:15:16;95440.97;;;10.20;88.36
42247;BME280;27913;42.722;23.268;2023-02-28T13:17:49;95339.25;;;9.42;88.14
42247;BME280;27913;42.722;23.268;2023-02-28T13:20:27;95438.53;;;10.10;87.33
42247;BME280;27913;42.722;23.268;2023-02-28T13:22:54;95437.75;;;10.10;88.50
42247;BME280;27913;42.722;23.268;2023-02-28T13:25:50;95233.78;;;8.75;88.44
42247;BME280;27913;42.722;23.268;2023-02-28T13:31:14;95430.91;;;10.00;89.50
42247;BME280;27913;42.722;23.268;2023-02-28T13:36:31;95436.44;;;10.06;87.47
42247;BME280;27913;42.722;23.268;2023-02-28T13:39:44;95363.59;;;9.68;88.65
42247;BME280;27913;42.722;23.268;2023-02-28T13:41:49;95432.03;;;10.06;87.25
42247;BME280;27913;42.722;23.268;2023-02-28T13:44:20;95423.47;;;10.04;87.62
42247;BME280;27913;42.722;23.268;2023-02-28T13:51:48;95418.69;;;10.08;88.04
42247;BME280;27913;42.722;23.268;2023-02-28T14:05:05;95417.09;;;9.98;87.98
42247;BME280;27913;42.722;23.268;2023-02-28T14:07:38;95228.16;;;8.86;88.10
42247;BME280;27913;42.722;23.268;2023-02-28T14:10:08;95357.75;;;9.57;87.66
42247;BME280;27913;42.722;23.268;2023-02-28T14:12:54;95420.59;;;9.90;87.66
42247;BME280;27913;42.722;23.268;2023-02-28T14:15:39;95293.69;;;9.03;87.75
42247;BME280;27913;42.722;23.268;2023-02-28T14:18:49;95231.19;;;8.50;88.79
42247;BME280;27913;42.722;23.268;2023-02-28T14:21:21;95264.25;;;8.76;88.35
42247;BME280;27913;42.722;23.268;2023-02-28T14:29:51;95329.91;;;8.99;89.88
42247;BME280;27913;42.722;23.268;2023-02-28T14:37:48;95307.19;;;8.83;90.38
42247;BME280;27913;42.722;23.268;2023-02-28T14:40:17;95165.47;;;7.94;90.18
42247;BME280;27913;42.722;23.268;2023-02-28T14:43:00;95235.66;;;8.32;90.50
42247;BME280;27913;42.722;23.268;2023-02-28T14:45:29;95427.84;;;9.48;91.32
42247;BME280;27913;42.722;23.268;2023-02-28T14:47:56;95324.25;;;8.70;91.62
42247;BME280;27913;42.722;23.268;2023-02-28T14:50:48;95384.00;;;9.00;92.43
42247;BME280;27913;42.722;23.268;2023-02-28T14:53:17;95425.25;;;9.32;92.84